sensor_id;sensor_type;location;lat;lon;timestamp;pressure;altitude;pressure_sealevel;temperature;humidity
2188;BME280;1100;52.014;8.540;2022-10-22T00:00:52;99599.94;;;12.04;89.43
2188;BME280;1100;52.014;8.540;2022-10-22T00:03:18;99599.63;;;12.02;89.69
2188;BME280;1100;52.014;8.540;2022-10-22T00:05:43;99615.25;;;12.00;89.47
2188;BME280;1100;52.014;8.540;2022-10-22T00:08:08;99602.84;;;11.91;89.36
2188;BME280;1100;52.014;8.540;2022-10-22T00:10:36;99606.09;;;11.90;89.38
2188;BME280;1100;52.014;8.540;2022-10-22T00:13:01;99617.38;;;11.86;89.46
2188;BME280;1100;52.014;8.540;2022-10-22T00:15:27;99617.69;;;11.88;89.67
2188;BME280;1100;52.014;8.540;2022-10-22T00:17:52;99617.25;;;11.90;89.93
2188;BME280;1100;52.014;8.540;2022-10-22T00:20:17;99622.69;;;11.93;89.68
2188;BME280;1100;52.014;8.540;2022-10-22T00:22:43;99618.19;;;11.96;90.04
2188;BME280;1100;52.014;8.540;2022-10-22T00:25:08;99608.78;;;12.03;90.06
2188;BME280;1100;52.014;8.540;2022-10-22T00:27:33;99606.16;;;12.08;89.88
2188;BME280;1100;52.014;8.540;2022-10-22T00:29:59;99614.84;;;12.11;90.15
2188;BME280;1100;52.014;8.540;2022-10-22T00:32:24;99619.81;;;12.16;90.44
2188;BME280;1100;52.014;8.540;2022-10-22T00:34:49;99623.84;;;12.24;90.16
2188;BME280;1100;52.014;8.540;2022-10-22T00:37:15;99640.09;;;12.26;90.03
2188;BME280;1100;52.014;8.540;2022-10-22T00:39:40;99642.41;;;12.27;90.13
2188;BME280;1100;52.014;8.540;2022-10-22T00:42:05;99639.97;;;12.39;90.84
2188;BME280;1100;52.014;8.540;2022-10-22T00:45:05;99640.28;;;12.50;90.39
2188;BME280;1100;52.014;8.540;2022-10-22T00:50:11;99638.44;;;12.56;90.01
2188;BME280;1100;52.014;8.540;2022-10-22T00:52:37;99639.66;;;12.55;90.08
2188;BME280;1100;52.014;8.540;2022-10-22T00:55:03;99650.66;;;12.59;90.42
2188;BME280;1100;52.014;8.540;2022-10-22T00:57:29;99650.19;;;12.61;90.19
2188;BME280;1100;52.014;8.540;2022-10-22T00:59:55;99646.16;;;12.62;90.05
2188;BME280;1100;52.014;8.540;2022-10-22T01:02:21;99657.31;;;12.62;90.05
2188;BME280;1100;52.014;8.540;2022-10-22T01:04:46;99652.84;;;12.64;90.22
2188;BME280;1100;52.014;8.540;2022-10-22T01:07:16;99645.09;;;12.68;90.42
2188;BME280;1100;52.014;8.540;2022-10-22T01:09:58;99644.63;;;12.70;90.22
2188;BME280;1100;52.014;8.540;2022-10-22T01:15:24;99641.50;;;12.77;90.30
2188;BME280;1100;52.014;8.540;2022-10-22T01:18:18;99642.75;;;12.76;90.17
2188;BME280;1100;52.014;8.540;2022-10-22T01:21:03;99648.47;;;12.73;90.01
2188;BME280;1100;52.014;8.540;2022-10-22T01:23:41;99637.66;;;12.75;90.12
2188;BME280;1100;52.014;8.540;2022-10-22T01:29:09;99638.56;;;12.71;90.34
2188;BME280;1100;52.014;8.540;2022-10-22T01:31:39;99649.72;;;12.71;90.13
2188;BME280;1100;52.014;8.540;2022-10-22T01:34:11;99638.91;;;12.74;90.27
2188;BME280;1100;52.014;8.540;2022-10-22T01:36:39;99639.19;;;12.76;90.05
2188;BME280;1100;52.014;8.540;2022-10-22T01:39:06;99644.75;;;12.76;90.20
2188;BME280;1100;52.014;8.540;2022-10-22T01:41:33;99644.75;;;12.76;90.27
2188;BME280;1100;52.014;8.540;2022-10-22T01:43:58;99639.50;;;12.78;90.21
2188;BME280;1100;52.014;8.540;2022-10-22T01:46:26;99641.03;;;12.79;90.30
2188;BME280;1100;52.014;8.540;2022-10-22T01:49:15;99648.00;;;12.83;90.36
2188;BME280;1100;52.014;8.540;2022-10-22T01:57:23;99637.31;;;12.82;89.99
2188;BME280;1100;52.014;8.540;2022-10-22T02:05:31;99644.16;;;12.71;89.98
2188;BME280;1100;52.014;8.540;2022-10-22T02:08:09;99633.94;;;12.68;89.99
2188;BME280;1100;52.014;8.540;2022-10-22T02:10:37;99639.97;;;12.67;90.00
2188;BME280;1100;52.014;8.540;2022-10-22T02:13:07;99634.41;;;12.67;90.09
2188;BME280;1100;52.014;8.540;2022-10-22T02:15:34;99633.31;;;12.64;90.03
2188;BME280;1100;52.014;8.540;2022-10-22T02:18:02;99624.16;;;12.64;89.90
2188;BME280;1100;52.014;8.540;2022-10-22T02:20:32;99626.66;;;12.62;89.74
2188;BME280;1100;52.014;8.540;2022-10-22T02:22:59;99615.66;;;12.58;89.76
2188;BME280;1100;52.014;8.540;2022-10-22T02:25:29;99605.59;;;12.51;89.65
2188;BME280;1100;52.014;8.540;2022-10-22T02:28:13;99606.66;;;12.44;89.59
2188;BME280;1100;52.014;8.540;2022-10-22T02:30:43;99610.09;;;12.39;89.64
2188;BME280;1100;52.014;8.540;2022-10-22T02:33:15;99611.31;;;12.29;89.34
2188;BME280;1100;52.014;8.540;2022-10-22T02:35:43;99615.66;;;12.20;89.35
2188;BME280;1100;52.014;8.540;2022-10-22T02:38:10;99614.06;;;12.10;89.28
2188;BME280;1100;52.014;8.540;2022-10-22T02:40:37;99598.09;;;12.01;89.52
2188;BME280;1100;52.014;8.540;2022-10-22T02:43:03;99610.28;;;11.94;89.18
2188;BME280;1100;52.014;8.540;2022-10-22T02:45:30;99610.28;;;11.85;89.04
2188;BME280;1100;52.014;8.540;2022-10-22T02:47:56;99604.22;;;11.77;89.48
2188;BME280;1100;52.014;8.540;2022-10-22T02:50:22;99597.25;;;11.73;89.34
2188;BME280;1100;52.014;8.540;2022-10-22T02:52:47;99613.78;;;11.67;89.32
2188;BME280;1100;52.014;8.540;2022-10-22T02:55:13;99613.59;;;11.61;89.41
2188;BME280;1100;52.014;8.540;2022-10-22T02:57:38;99620.84;;;11.58;89.41
2188;BME280;1100;52.014;8.540;2022-10-22T03:00:05;99619.00;;;11.55;89.58
2188;BME280;1100;52.014;8.540;2022-10-22T03:02:31;99618.53;;;11.57;89.59
2188;BME280;1100;52.014;8.540;2022-10-22T03:04:57;99636.78;;;11.58;89.75
2188;BME280;1100;52.014;8.540;2022-10-22T03:07:22;99631.06;;;11.62;89.92
2188;BME280;1100;52.014;8.540;2022-10-22T03:09:47;99620.56;;;11.66;89.95
2188;BME280;1100;52.014;8.540;2022-10-22T03:12:12;99633.56;;;11.69;89.80
2188;BME280;1100;52.014;8.540;2022-10-22T03:14:38;99640.38;;;11.68;89.73
2188;BME280;1100;52.014;8.540;2022-10-22T03:17:03;99636.06;;;11.67;89.68
2188;BME280;1100;52.014;8.540;2022-10-22T03:19:29;99643.44;;;11.61;89.33
2188;BME280;1100;52.014;8.540;2022-10-22T03:22:03;99642.97;;;11.53;89.44
2188;BME280;1100;52.014;8.540;2022-10-22T03:24:34;99640.31;;;11.49;89.25
2188;BME280;1100;52.014;8.540;2022-10-22T03:27:00;99641.34;;;11.42;89.25
2188;BME280;1100;52.014;8.540;2022-10-22T03:29:26;99653.53;;;11.36;89.05
2188;BME280;1100;52.014;8.540;2022-10-22T03:31:53;99657.81;;;11.27;89.30
2188;BME280;1100;52.014;8.540;2022-10-22T03:34:18;99647.59;;;11.24;89.25
2188;BME280;1100;52.014;8.540;2022-10-22T03:36:44;99654.19;;;11.17;89.25
2188;BME280;1100;52.014;8.540;2022-10-22T03:39:12;99654.34;;;11.14;89.19
2188;BME280;1100;52.014;8.540;2022-10-22T03:41:39;99656.16;;;11.07;89.19
2188;BME280;1100;52.014;8.540;2022-10-22T03:44:04;99662.28;;;11.02;89.25
2188;BME280;1100;52.014;8.540;2022-10-22T03:46:30;99663.66;;;10.98;89.26
2188;BME280;1100;52.014;8.540;2022-10-22T03:48:55;99665.47;;;10.91;89.09
2188;BME280;1100;52.014;8.540;2022-10-22T03:51:21;99665.59;;;10.88;89.23
2188;BME280;1100;52.014;8.540;2022-10-22T03:53:46;99664.81;;;10.87;89.12
2188;BME280;1100;52.014;8.540;2022-10-22T03:56:12;99673.63;;;10.86;89.37
2188;BME280;1100;52.014;8.540;2022-10-22T03:58:39;99670.69;;;10.89;89.69
2188;BME280;1100;52.014;8.540;2022-10-22T04:01:07;99652.66;;;10.94;89.94
2188;BME280;1100;52.014;8.540;2022-10-22T04:03:33;99664.09;;;10.96;89.70
2188;BME280;1100;52.014;8.540;2022-10-22T04:06:07;99672.78;;;10.98;89.82
2188;BME280;1100;52.014;8.540;2022-10-22T04:08:33;99664.97;;;11.06;89.96
2188;BME280;1100;52.014;8.540;2022-10-22T04:10:59;99672.56;;;11.15;90.17
2188;BME280;1100;52.014;8.540;2022-10-22T04:13:24;99682.22;;;11.23;90.22
2188;BME280;1100;52.014;8.540;2022-10-22T04:15:50;99676.38;;;11.30;90.19
2188;BME280;1100;52.014;8.540;2022-10-22T04:18:17;99680.91;;;11.37;90.07
2188;BME280;1100;52.014;8.540;2022-10-22T04:20:43;99675.97;;;11.41;90.08
2188;BME280;1100;52.014;8.540;2022-10-22T04:23:08;99685.88;;;11.42;89.87
2188;BME280;1100;52.014;8.540;2022-10-22T04:25:33;99683.88;;;11.43;89.93
2188;BME280;1100;52.014;8.540;2022-10-22T04:27:59;99677.97;;;11.41;90.07
2188;BME280;1100;52.014;8.540;2022-10-22T04:30:24;99678.31;;;11.43;89.86
2188;BME280;1100;52.014;8.540;2022-10-22T04:32:49;99683.09;;;11.42;89.91
2188;BME280;1100;52.014;8.540;2022-10-22T04:35:15;99683.25;;;11.39;89.76
2188;BME280;1100;52.014;8.540;2022-10-22T04:37:40;99680.59;;;11.35;89.78
2188;BME280;1100;52.014;8.540;2022-10-22T04:40:06;99681.81;;;11.34;90.18
2188;BME280;1100;52.014;8.540;2022-10-22T04:42:31;99672.06;;;11.29;89.66
2188;BME280;1100;52.014;8.540;2022-10-22T04:44:57;99679.28;;;11.27;89.73
2188;BME280;1100;52.014;8.540;2022-10-22T04:47:22;99675.09;;;11.22;89.83
2188;BME280;1100;52.014;8.540;2022-10-22T04:49:47;99682.22;;;11.23;89.96
2188;BME280;1100;52.014;8.540;2022-10-22T04:52:13;99682.69;;;11.21;89.83
2188;BME280;1100;52.014;8.540;2022-10-22T04:54:38;99685.91;;;11.20;89.81
2188;BME280;1100;52.014;8.540;2022-10-22T04:57:03;99675.25;;;11.18;89.83
2188;BME280;1100;52.014;8.540;2022-10-22T04:59:29;99672.00;;;11.20;89.92
2188;BME280;1100;52.014;8.540;2022-10-22T05:01:54;99671.84;;;11.24;90.18
2188;BME280;1100;52.014;8.540;2022-10-22T05:04:19;99661.50;;;11.24;90.00
2188;BME280;1100;52.014;8.540;2022-10-22T05:06:45;99672.69;;;11.33;90.13
2188;BME280;1100;52.014;8.540;2022-10-22T05:09:13;99675.34;;;11.37;90.10
2188;BME280;1100;52.014;8.540;2022-10-22T05:11:40;99672.09;;;11.39;89.92
2188;BME280;1100;52.014;8.540;2022-10-22T05:14:06;99679.03;;;11.34;89.70
2188;BME280;1100;52.014;8.540;2022-10-22T05:16:34;99678.25;;;11.33;89.89
2188;BME280;1100;52.014;8.540;2022-10-22T05:19:00;99677.28;;;11.27;89.57
2188;BME280;1100;52.014;8.540;2022-10-22T05:21:26;99680.00;;;11.18;89.40
2188;BME280;1100;52.014;8.540;2022-10-22T05:23:52;99687.84;;;11.10;89.50
2188;BME280;1100;52.014;8.540;2022-10-22T05:26:20;99681.31;;;11.04;89.51
2188;BME280;1100;52.014;8.540;2022-10-22T05:28:49;99685.13;;;10.97;89.51
2188;BME280;1100;52.014;8.540;2022-10-22T05:31:15;99690.03;;;10.93;89.77
2188;BME280;1100;52.014;8.540;2022-10-22T05:33:41;99696.06;;;10.91;89.60
2188;BME280;1100;52.014;8.540;2022-10-22T05:36:08;99696.16;;;10.88;89.72
2188;BME280;1100;52.014;8.540;2022-10-22T05:38:35;99711.31;;;10.87;89.92
2188;BME280;1100;52.014;8.540;2022-10-22T05:41:14;99710.75;;;10.92;90.13
2188;BME280;1100;52.014;8.540;2022-10-22T05:43:39;99707.50;;;10.93;90.06
2188;BME280;1100;52.014;8.540;2022-10-22T05:46:16;99710.16;;;10.97;90.04
2188;BME280;1100;52.014;8.540;2022-10-22T05:48:42;99715.03;;;11.06;90.34
2188;BME280;1100;52.014;8.540;2022-10-22T05:51:12;99713.72;;;11.20;90.53
2188;BME280;1100;52.014;8.540;2022-10-22T05:53:40;99717.03;;;11.28;90.38
2188;BME280;1100;52.014;8.540;2022-10-22T05:56:15;99723.22;;;11.32;90.33
2188;BME280;1100;52.014;8.540;2022-10-22T05:58:42;99718.91;;;11.31;90.11
2188;BME280;1100;52.014;8.540;2022-10-22T06:01:16;99722.44;;;11.31;90.04
2188;BME280;1100;52.014;8.540;2022-10-22T06:03:43;99731.13;;;11.33;90.12
2188;BME280;1100;52.014;8.540;2022-10-22T06:08:53;99738.09;;;11.38;90.28
2188;BME280;1100;52.014;8.540;2022-10-22T06:11:20;99736.56;;;11.37;90.04
2188;BME280;1100;52.014;8.540;2022-10-22T06:13:46;99739.81;;;11.36;89.67
2188;BME280;1100;52.014;8.540;2022-10-22T06:16:13;99736.56;;;11.37;90.20
2188;BME280;1100;52.014;8.540;2022-10-22T06:18:38;99744.13;;;11.37;90.05
2188;BME280;1100;52.014;8.540;2022-10-22T06:21:09;99748.44;;;11.38;90.12
2188;BME280;1100;52.014;8.540;2022-10-22T06:23:36;99746.00;;;11.40;90.32
2188;BME280;1100;52.014;8.540;2022-10-22T06:26:03;99760.75;;;11.50;90.67
2188;BME280;1100;52.014;8.540;2022-10-22T06:28:29;99751.34;;;11.56;90.33
2188;BME280;1100;52.014;8.540;2022-10-22T06:30:56;99764.81;;;11.58;90.21
2188;BME280;1100;52.014;8.540;2022-10-22T06:33:22;99754.13;;;11.56;90.21
2188;BME280;1100;52.014;8.540;2022-10-22T06:35:47;99760.03;;;11.58;90.22
2188;BME280;1100;52.014;8.540;2022-10-22T06:38:13;99769.63;;;11.57;89.99
2188;BME280;1100;52.014;8.540;2022-10-22T06:40:38;99777.66;;;11.55;90.11
2188;BME280;1100;52.014;8.540;2022-10-22T06:43:07;99779.53;;;11.58;90.23
2188;BME280;1100;52.014;8.540;2022-10-22T06:45:33;99786.84;;;11.65;90.32
2188;BME280;1100;52.014;8.540;2022-10-22T06:47:58;99794.78;;;11.76;90.46
2188;BME280;1100;52.014;8.540;2022-10-22T06:50:23;99790.94;;;11.83;90.27
2188;BME280;1100;52.014;8.540;2022-10-22T06:52:48;99797.03;;;11.91;90.33
2188;BME280;1100;52.014;8.540;2022-10-22T06:55:14;99800.53;;;12.04;90.63
2188;BME280;1100;52.014;8.540;2022-10-22T06:57:39;99803.25;;;12.17;90.78
2188;BME280;1100;52.014;8.540;2022-10-22T07:00:06;99791.97;;;12.30;90.59
2188;BME280;1100;52.014;8.540;2022-10-22T07:02:31;99789.41;;;12.45;90.43
2188;BME280;1100;52.014;8.540;2022-10-22T07:04:57;99798.56;;;12.55;90.53
2188;BME280;1100;52.014;8.540;2022-10-22T07:07:22;99799.97;;;12.60;90.30
2188;BME280;1100;52.014;8.540;2022-10-22T07:09:47;99808.97;;;12.64;90.33
2188;BME280;1100;52.014;8.540;2022-10-22T07:12:14;99808.81;;;12.68;90.00
2188;BME280;1100;52.014;8.540;2022-10-22T07:14:39;99817.03;;;12.71;90.16
2188;BME280;1100;52.014;8.540;2022-10-22T07:17:05;99818.78;;;12.78;90.47
2188;BME280;1100;52.014;8.540;2022-10-22T07:19:30;99817.69;;;12.85;90.47
2188;BME280;1100;52.014;8.540;2022-10-22T07:21:56;99825.91;;;12.89;90.33
2188;BME280;1100;52.014;8.540;2022-10-22T07:24:21;99821.75;;;12.93;90.38
2188;BME280;1100;52.014;8.540;2022-10-22T07:26:47;99835.53;;;12.97;90.29
2188;BME280;1100;52.014;8.540;2022-10-22T07:29:12;99833.50;;;12.98;90.22
2188;BME280;1100;52.014;8.540;2022-10-22T07:31:39;99833.97;;;12.96;90.17
2188;BME280;1100;52.014;8.540;2022-10-22T07:34:05;99839.56;;;12.96;90.25
2188;BME280;1100;52.014;8.540;2022-10-22T07:36:30;99848.88;;;13.02;89.98
2188;BME280;1100;52.014;8.540;2022-10-22T07:38:57;99844.53;;;13.11;90.07
2188;BME280;1100;52.014;8.540;2022-10-22T07:41:23;99852.00;;;13.32;90.18
2188;BME280;1100;52.014;8.540;2022-10-22T07:43:49;99850.00;;;13.42;90.39
2188;BME280;1100;52.014;8.540;2022-10-22T07:46:14;99851.44;;;13.56;90.25
2188;BME280;1100;52.014;8.540;2022-10-22T07:48:39;99845.50;;;13.73;90.33
2188;BME280;1100;52.014;8.540;2022-10-22T07:51:05;99851.06;;;13.82;90.30
2188;BME280;1100;52.014;8.540;2022-10-22T07:53:30;99859.16;;;13.90;90.12
2188;BME280;1100;52.014;8.540;2022-10-22T07:55:56;99854.63;;;13.92;90.35
2188;BME280;1100;52.014;8.540;2022-10-22T07:58:21;99846.56;;;13.94;89.97
2188;BME280;1100;52.014;8.540;2022-10-22T08:00:48;99849.97;;;13.99;89.90
2188;BME280;1100;52.014;8.540;2022-10-22T08:03:14;99851.78;;;14.20;89.67
2188;BME280;1100;52.014;8.540;2022-10-22T08:05:40;99849.84;;;14.36;89.58
2188;BME280;1100;52.014;8.540;2022-10-22T08:08:08;99859.13;;;14.52;89.86
2188;BME280;1100;52.014;8.540;2022-10-22T08:10:34;99855.69;;;14.57;89.42
2188;BME280;1100;52.014;8.540;2022-10-22T08:12:59;99860.13;;;14.64;89.43
2188;BME280;1100;52.014;8.540;2022-10-22T08:15:25;99859.81;;;14.71;89.48
2188;BME280;1100;52.014;8.540;2022-10-22T08:17:51;99858.56;;;14.72;89.38
2188;BME280;1100;52.014;8.540;2022-10-22T08:20:17;99866.31;;;14.77;89.28
2188;BME280;1100;52.014;8.540;2022-10-22T08:22:42;99859.00;;;14.80;89.61
2188;BME280;1100;52.014;8.540;2022-10-22T08:25:08;99861.16;;;14.85;89.70
2188;BME280;1100;52.014;8.540;2022-10-22T08:27:33;99864.75;;;14.86;89.60
2188;BME280;1100;52.014;8.540;2022-10-22T08:29:58;99869.69;;;14.91;89.76
2188;BME280;1100;52.014;8.540;2022-10-22T08:32:24;99869.97;;;14.93;89.79
2188;BME280;1100;52.014;8.540;2022-10-22T08:34:49;99875.56;;;14.93;89.64
2188;BME280;1100;52.014;8.540;2022-10-22T08:37:15;99879.91;;;14.94;89.59
2188;BME280;1100;52.014;8.540;2022-10-22T08:39:41;99889.75;;;14.89;89.21
2188;BME280;1100;52.014;8.540;2022-10-22T08:48:45;99891.63;;;14.83;89.41
2188;BME280;1100;52.014;8.540;2022-10-22T08:51:17;99899.75;;;14.81;89.37
2188;BME280;1100;52.014;8.540;2022-10-22T08:56:35;99904.25;;;14.69;89.23
2188;BME280;1100;52.014;8.540;2022-10-22T08:59:21;99895.28;;;14.65;89.31
2188;BME280;1100;52.014;8.540;2022-10-22T09:01:50;99901.19;;;14.67;89.41
2188;BME280;1100;52.014;8.540;2022-10-22T09:04:27;99898.97;;;14.71;89.42
2188;BME280;1100;52.014;8.540;2022-10-22T09:06:57;99893.69;;;14.73;89.27
2188;BME280;1100;52.014;8.540;2022-10-22T09:09:25;99898.34;;;14.76;89.41
2188;BME280;1100;52.014;8.540;2022-10-22T09:11:52;99907.66;;;14.82;89.33
2188;BME280;1100;52.014;8.540;2022-10-22T09:14:22;99896.28;;;14.86;89.50
2188;BME280;1100;52.014;8.540;2022-10-22T09:25:35;99897.91;;;15.02;89.25
2188;BME280;1100;52.014;8.540;2022-10-22T09:28:01;99901.50;;;15.03;89.28
2188;BME280;1100;52.014;8.540;2022-10-22T09:30:35;99911.31;;;14.98;89.09
2188;BME280;1100;52.014;8.540;2022-10-22T09:35:33;99904.16;;;14.97;89.02
2188;BME280;1100;52.014;8.540;2022-10-22T09:38:05;99909.91;;;15.03;88.98
2188;BME280;1100;52.014;8.540;2022-10-22T09:40:31;99909.69;;;15.06;89.01
2188;BME280;1100;52.014;8.540;2022-10-22T09:42:56;99916.50;;;15.15;89.07
2188;BME280;1100;52.014;8.540;2022-10-22T09:45:25;99919.25;;;15.24;89.56
2188;BME280;1100;52.014;8.540;2022-10-22T09:48:02;99912.31;;;15.35;89.20
2188;BME280;1100;52.014;8.540;2022-10-22T09:50:44;99917.09;;;15.43;89.00
2188;BME280;1100;52.014;8.540;2022-10-22T09:53:21;99927.47;;;15.52;88.96
2188;BME280;1100;52.014;8.540;2022-10-22T09:55:54;99932.41;;;15.57;89.01
2188;BME280;1100;52.014;8.540;2022-10-22T09:58:20;99938.00;;;15.57;88.88
2188;BME280;1100;52.014;8.540;2022-10-22T10:00:51;99933.78;;;15.62;88.88
2188;BME280;1100;52.014;8.540;2022-10-22T10:03:23;99937.72;;;15.70;89.01
2188;BME280;1100;52.014;8.540;2022-10-22T10:05:52;99941.06;;;15.84;89.10
2188;BME280;1100;52.014;8.540;2022-10-22T10:08:18;99948.13;;;15.94;89.06
2188;BME280;1100;52.014;8.540;2022-10-22T10:10:56;99949.44;;;16.09;88.93
2188;BME280;1100;52.014;8.540;2022-10-22T10:21:59;99949.66;;;16.20;88.10
2188;BME280;1100;52.014;8.540;2022-10-22T10:27:18;99955.25;;;16.20;87.79
2188;BME280;1100;52.014;8.540;2022-10-22T10:30:00;99957.09;;;16.23;87.53
2188;BME280;1100;52.014;8.540;2022-10-22T10:32:37;99959.41;;;16.25;87.70
2188;BME280;1100;52.014;8.540;2022-10-22T10:35:32;99953.03;;;16.24;87.49
2188;BME280;1100;52.014;8.540;2022-10-22T10:40:51;99962.22;;;16.10;87.25
2188;BME280;1100;52.014;8.540;2022-10-22T10:43:28;99972.25;;;16.01;86.99
2188;BME280;1100;52.014;8.540;2022-10-22T10:53:57;99971.59;;;15.82;86.67
2188;BME280;1100;52.014;8.540;2022-10-22T10:56:54;99964.94;;;15.79;86.29
2188;BME280;1100;52.014;8.540;2022-10-22T11:05:24;99979.16;;;15.91;86.28
2188;BME280;1100;52.014;8.540;2022-10-22T11:08:26;99973.75;;;15.87;86.44
2188;BME280;1100;52.014;8.540;2022-10-22T11:16:41;99982.09;;;15.72;86.08
2188;BME280;1100;52.014;8.540;2022-10-22T11:19:17;99983.03;;;15.69;85.78
2188;BME280;1100;52.014;8.540;2022-10-22T11:24:45;99983.09;;;15.60;85.89
2188;BME280;1100;52.014;8.540;2022-10-22T11:27:38;99984.84;;;15.57;85.77
2188;BME280;1100;52.014;8.540;2022-10-22T11:30:12;99990.03;;;15.49;85.80
2188;BME280;1100;52.014;8.540;2022-10-22T11:32:39;99985.56;;;15.42;85.51
2188;BME280;1100;52.014;8.540;2022-10-22T11:35:10;99984.19;;;15.38;85.63
2188;BME280;1100;52.014;8.540;2022-10-22T11:37:38;99981.75;;;15.30;85.53
2188;BME280;1100;52.014;8.540;2022-10-22T11:40:16;99981.91;;;15.27;85.58
2188;BME280;1100;52.014;8.540;2022-10-22T11:42:52;99987.03;;;15.28;85.90
2188;BME280;1100;52.014;8.540;2022-10-22T11:53:16;99980.16;;;15.39;85.90
2188;BME280;1100;52.014;8.540;2022-10-22T11:55:45;99998.00;;;15.41;85.87
2188;BME280;1100;52.014;8.540;2022-10-22T12:00:51;99987.88;;;15.44;85.37
2188;BME280;1100;52.014;8.540;2022-10-22T12:03:23;99978.53;;;15.47;85.49
2188;BME280;1100;52.014;8.540;2022-10-22T12:14:01;100000.88;;;15.56;84.27
2188;BME280;1100;52.014;8.540;2022-10-22T12:19:02;99990.03;;;15.49;84.65
2188;BME280;1100;52.014;8.540;2022-10-22T12:21:31;99993.00;;;15.45;84.59
2188;BME280;1100;52.014;8.540;2022-10-22T12:23:58;99992.41;;;15.41;84.81
2188;BME280;1100;52.014;8.540;2022-10-22T12:26:28;99996.16;;;15.38;84.77
2188;BME280;1100;52.014;8.540;2022-10-22T12:28:58;99987.94;;;15.35;84.93
2188;BME280;1100;52.014;8.540;2022-10-22T12:31:24;99993.25;;;15.32;84.74
2188;BME280;1100;52.014;8.540;2022-10-22T12:33:57;99994.19;;;15.29;84.90
2188;BME280;1100;52.014;8.540;2022-10-22T12:36:25;99994.38;;;15.26;84.80
2188;BME280;1100;52.014;8.540;2022-10-22T12:38:50;99997.53;;;15.18;84.96
2188;BME280;1100;52.014;8.540;2022-10-22T12:41:16;99998.31;;;15.10;84.59
2188;BME280;1100;52.014;8.540;2022-10-22T12:43:41;99999.28;;;15.06;84.57
2188;BME280;1100;52.014;8.540;2022-10-22T12:46:14;99995.25;;;15.07;84.88
2188;BME280;1100;52.014;8.540;2022-10-22T12:48:42;100004.41;;;15.08;84.73
2188;BME280;1100;52.014;8.540;2022-10-22T12:51:14;100002.03;;;15.16;84.74
2188;BME280;1100;52.014;8.540;2022-10-22T12:53:46;100005.72;;;15.22;84.85
2188;BME280;1100;52.014;8.540;2022-10-22T12:56:14;99997.16;;;15.26;84.70
2188;BME280;1100;52.014;8.540;2022-10-22T12:59:25;100005.41;;;15.29;84.86
2188;BME280;1100;52.014;8.540;2022-10-22T13:01:36;100003.03;;;15.37;84.44
2188;BME280;1100;52.014;8.540;2022-10-22T13:04:19;100000.03;;;15.41;84.47
2188;BME280;1100;52.014;8.540;2022-10-22T13:07:03;99992.34;;;15.51;84.42
2188;BME280;1100;52.014;8.540;2022-10-22T13:09:39;100001.34;;;15.55;84.53
2188;BME280;1100;52.014;8.540;2022-10-22T13:12:06;100002.44;;;15.57;84.29
2188;BME280;1100;52.014;8.540;2022-10-22T13:14:33;100006.31;;;15.60;83.80
2188;BME280;1100;52.014;8.540;2022-10-22T13:17:19;100002.72;;;15.60;83.77
2188;BME280;1100;52.014;8.540;2022-10-22T13:19:57;100001.97;;;15.59;83.34
2188;BME280;1100;52.014;8.540;2022-10-22T13:22:38;100005.53;;;15.60;83.81
2188;BME280;1100;52.014;8.540;2022-10-22T13:25:19;100012.06;;;15.56;83.67
2188;BME280;1100;52.014;8.540;2022-10-22T13:27:47;100007.63;;;15.50;83.76
2188;BME280;1100;52.014;8.540;2022-10-22T13:30:51;99999.09;;;15.44;83.33
2188;BME280;1100;52.014;8.540;2022-10-22T13:33:36;99999.75;;;15.39;83.05
2188;BME280;1100;52.014;8.540;2022-10-22T13:36:02;100005.03;;;15.37;83.19
2188;BME280;1100;52.014;8.540;2022-10-22T13:38:29;100003.66;;;15.32;83.53
2188;BME280;1100;52.014;8.540;2022-10-22T13:40:54;100001.34;;;15.30;83.61
2188;BME280;1100;52.014;8.540;2022-10-22T13:43:21;100001.81;;;15.29;83.61
2188;BME280;1100;52.014;8.540;2022-10-22T13:45:51;100009.44;;;15.28;83.47
2188;BME280;1100;52.014;8.540;2022-10-22T13:48:19;100009.16;;;15.26;83.41
2188;BME280;1100;52.014;8.540;2022-10-22T13:50:49;100011.31;;;15.22;83.57
2188;BME280;1100;52.014;8.540;2022-10-22T13:53:17;100009.47;;;15.19;83.54
2188;BME280;1100;52.014;8.540;2022-10-22T13:55:43;100010.44;;;15.16;83.47
2188;BME280;1100;52.014;8.540;2022-10-22T13:58:11;100019.28;;;15.14;83.43
2188;BME280;1100;52.014;8.540;2022-10-22T14:00:38;100020.72;;;15.10;83.08
2188;BME280;1100;52.014;8.540;2022-10-22T14:03:07;100023.38;;;15.04;83.07
2188;BME280;1100;52.014;8.540;2022-10-22T14:05:33;100028.06;;;14.98;83.22
2188;BME280;1100;52.014;8.540;2022-10-22T14:07:59;100029.50;;;14.93;83.24
2188;BME280;1100;52.014;8.540;2022-10-22T14:10:25;100026.09;;;14.89;82.90
2188;BME280;1100;52.014;8.540;2022-10-22T14:12:51;100022.97;;;14.87;82.98
2188;BME280;1100;52.014;8.540;2022-10-22T14:15:25;100030.31;;;14.84;82.88
2188;BME280;1100;52.014;8.540;2022-10-22T14:17:56;100031.25;;;14.81;83.00
2188;BME280;1100;52.014;8.540;2022-10-22T14:20:28;100031.25;;;14.81;83.14
2188;BME280;1100;52.014;8.540;2022-10-22T14:22:55;100035.59;;;14.82;83.34
2188;BME280;1100;52.014;8.540;2022-10-22T14:25:23;100038.69;;;14.84;83.29
2188;BME280;1100;52.014;8.540;2022-10-22T14:27:48;100033.09;;;14.84;83.16
2188;BME280;1100;52.014;8.540;2022-10-22T14:30:19;100040.41;;;14.81;83.34
2188;BME280;1100;52.014;8.540;2022-10-22T14:32:46;100038.97;;;14.77;83.40
2188;BME280;1100;52.014;8.540;2022-10-22T14:35:15;100051.13;;;14.74;83.39
2188;BME280;1100;52.014;8.540;2022-10-22T14:37:41;100046.16;;;14.68;83.70
2188;BME280;1100;52.014;8.540;2022-10-22T14:40:08;100039.94;;;14.64;83.85
2188;BME280;1100;52.014;8.540;2022-10-22T14:42:38;100050.22;;;14.58;83.60
2188;BME280;1100;52.014;8.540;2022-10-22T14:45:08;100052.88;;;14.52;83.85
2188;BME280;1100;52.014;8.540;2022-10-22T14:47:35;100053.50;;;14.47;83.68
2188;BME280;1100;52.014;8.540;2022-10-22T14:50:01;100058.00;;;14.44;83.93
2188;BME280;1100;52.014;8.540;2022-10-22T14:52:26;100058.94;;;14.41;84.03
2188;BME280;1100;52.014;8.540;2022-10-22T14:54:52;100057.38;;;14.40;84.13
2188;BME280;1100;52.014;8.540;2022-10-22T14:57:17;100054.28;;;14.38;84.17
2188;BME280;1100;52.014;8.540;2022-10-22T14:59:43;100055.22;;;14.35;84.38
2188;BME280;1100;52.014;8.540;2022-10-22T15:02:11;100056.16;;;14.32;84.42
2188;BME280;1100;52.014;8.540;2022-10-22T15:04:38;100067.34;;;14.32;84.40
2188;BME280;1100;52.014;8.540;2022-10-22T15:07:03;100069.81;;;14.30;84.29
2188;BME280;1100;52.014;8.540;2022-10-22T15:09:28;100069.19;;;14.26;84.22